Página principal
METAR-TAF:

METAR-TAF

Aeroportos :

Kunming, China

latitude: 25-01N, longitude: 102-41E, altura: 1892 m

Observação actual do tempo

O boletim foi feito há 22 minutos, às 14:00 UTC
Vento 12 kt de su-sudeste
Temperatura 21°C
Humidade 64%
Pressão 1017 hPa
Visibilidade 10 km ou mais
Poucas nuvensa uma altura de 2300 ft

METAR: ZPPP 181400Z 15006MPS 9999 FEW023 21/14 Q1017 NOSIG

Hora: 22:22 (14:22 UTC)

Previsão

O boletim foi feito há 7 horas e 18 minutos, às 07:04 UTC
Previsão válida de 18 às 12 UTC a 19 às 12 UTC
Vento 8 kt de es-sudeste
Visibilidade 10 km ou mais
Nuvens dispersasa uma altura de 2300 ft

TAF: ZPPP 180704Z 1812/1912 12004MPS 9999 SCT023 TX25/1908Z TN16/1823Z

Observações e previsões do tempo de mais de 4000 aeroportos (mensagens METAR e TAF).

As estações disponíveis são os pontos amarelos e vermelhos sobre o mapa.

Mova o rato sobre o mapa para ver o nome da estação.

Depois clique no ponto para visualizar as observações e previsões meteorológicas.

Para alterar o mapa : clique nos botões verdes com uma cruz preta para aumentar o zoom; no botão verde com uma pitada de zoom; ou nas setas verdes para mapas adjacentes.


METAR-TAF: